createdAt,value
2022-11-18T00:01:13.911Z,62.95
2022-11-18T00:02:45.589Z,63.19
2022-11-18T00:04:17.269Z,63.42
2022-11-18T00:05:55.620Z,63.60
2022-11-18T00:07:27.372Z,63.66
2022-11-18T00:08:59.224Z,63.33
2022-11-18T00:10:30.890Z,63.38
2022-11-18T00:12:21.282Z,63.61
2022-11-18T00:14:11.263Z,63.72
2022-11-18T00:15:42.984Z,63.30
2022-11-18T00:17:14.885Z,63.65
2022-11-18T00:18:46.587Z,63.86
2022-11-18T00:20:18.703Z,63.57
2022-11-18T00:21:50.363Z,63.92
2022-11-18T00:23:21.980Z,64.04
2022-11-18T00:24:53.632Z,63.64
2022-11-18T00:26:25.188Z,63.81
2022-11-18T00:27:56.882Z,63.55
2022-11-18T00:29:28.795Z,63.51
2022-11-18T00:31:07.388Z,63.80
2022-11-18T00:32:39.166Z,63.77
2022-11-18T00:34:11.607Z,63.60
2022-11-18T00:35:43.260Z,63.79
2022-11-18T00:37:15.870Z,63.52
2022-11-18T00:38:47.731Z,64.01
2022-11-18T00:40:19.640Z,63.87
2022-11-18T00:42:09.774Z,63.56
2022-11-18T00:43:41.686Z,63.80
2022-11-18T00:45:13.385Z,63.83
2022-11-18T00:46:45.387Z,63.99
2022-11-18T00:48:21.762Z,64.08
2022-11-18T00:49:53.417Z,63.64
2022-11-18T00:51:25.081Z,63.50
2022-11-18T00:52:56.926Z,63.69
2022-11-18T00:54:28.473Z,63.46
2022-11-18T00:56:00.142Z,63.54
2022-11-18T00:57:31.886Z,63.56
2022-11-18T00:59:03.513Z,63.86
2022-11-18T01:00:35.153Z,64.00
2022-11-18T01:02:06.995Z,63.65
2022-11-18T01:03:38.661Z,63.74
2022-11-18T01:05:10.282Z,64.19
2022-11-18T01:06:41.825Z,63.85
2022-11-18T01:08:13.480Z,63.73
2022-11-18T01:09:45.187Z,63.53
2022-11-18T01:11:35.598Z,63.71
2022-11-18T01:13:19.803Z,63.68
2022-11-18T01:14:51.501Z,63.75
2022-11-18T01:16:23.742Z,63.67
2022-11-18T01:17:55.322Z,63.96
2022-11-18T01:19:26.970Z,64.13
2022-11-18T01:21:01.581Z,63.88
2022-11-18T01:22:33.211Z,63.67
2022-11-18T01:24:05.105Z,64.22
2022-11-18T01:25:37.546Z,64.37
2022-11-18T01:27:09.222Z,64.37
2022-11-18T01:28:40.859Z,64.32
2022-11-18T01:30:12.805Z,64.19
2022-11-18T01:32:08.748Z,64.45
2022-11-18T01:33:36.093Z,64.43
2022-11-18T01:35:07.974Z,63.83
2022-11-18T01:36:39.668Z,63.03
2022-11-18T01:38:12.175Z,63.27
2022-11-18T01:39:44.719Z,63.07
2022-11-18T01:41:16.834Z,62.77
2022-11-18T01:42:48.543Z,62.77
2022-11-18T01:44:38.731Z,62.91
2022-11-18T01:46:10.427Z,63.05
2022-11-18T01:47:45.757Z,63.43
2022-11-18T01:49:17.574Z,63.45
2022-11-18T01:51:09.753Z,63.04
2022-11-18T01:52:41.294Z,63.45
2022-11-18T01:54:16.661Z,63.10
2022-11-18T01:55:48.731Z,63.35
2022-11-18T01:57:20.715Z,63.18
2022-11-18T01:58:53.512Z,63.67
2022-11-18T02:00:25.121Z,63.77
2022-11-18T02:01:59.659Z,63.04
2022-11-18T02:03:32.029Z,63.61
2022-11-18T02:05:04.395Z,63.71
2022-11-18T02:06:36.415Z,63.32
2022-11-18T02:08:08.101Z,63.51
2022-11-18T02:09:39.742Z,63.58
2022-11-18T02:11:34.862Z,63.64
2022-11-18T02:13:07.764Z,63.26
2022-11-18T02:14:40.660Z,63.26
2022-11-18T02:16:15.961Z,63.40
2022-11-18T02:17:50.562Z,63.44
2022-11-18T02:19:22.043Z,63.58
2022-11-18T02:20:56.319Z,64.10
2022-11-18T02:22:33.535Z,63.85
2022-11-18T02:24:26.838Z,63.31
2022-11-18T02:26:04.740Z,63.65
2022-11-18T02:27:36.353Z,63.63
2022-11-18T02:29:12.166Z,64.18
2022-11-18T02:30:50.652Z,63.70
2022-11-18T02:32:23.882Z,63.36
2022-11-18T02:33:58.761Z,63.72
2022-11-18T02:35:32.203Z,63.53
2022-11-18T02:37:08.602Z,64.25
2022-11-18T02:38:44.879Z,64.17
2022-11-18T02:40:19.124Z,64.00
2022-11-18T02:41:51.096Z,64.54
2022-11-18T02:43:27.112Z,63.90
2022-11-18T02:45:00.349Z,64.29
2022-11-18T02:46:35.479Z,64.35
2022-11-18T02:48:08.090Z,63.95
2022-11-18T02:49:40.743Z,64.56
2022-11-18T02:51:12.394Z,64.03
2022-11-18T02:52:43.946Z,64.38
2022-11-18T02:54:16.007Z,64.21
2022-11-18T02:55:47.751Z,64.93
2022-11-18T02:57:19.669Z,64.39
2022-11-18T02:58:51.277Z,64.53
2022-11-18T03:00:23.155Z,63.55
2022-11-18T03:01:55.084Z,64.26
2022-11-18T03:03:33.905Z,63.52
2022-11-18T03:05:05.496Z,63.96
2022-11-18T03:06:38.853Z,63.57
2022-11-18T03:08:13.188Z,63.84
2022-11-18T03:09:45.425Z,63.94
2022-11-18T03:11:17.936Z,63.44
2022-11-18T03:13:04.674Z,63.93
2022-11-18T03:14:47.916Z,63.45
2022-11-18T03:16:22.537Z,63.81
2022-11-18T03:18:12.705Z,63.64
2022-11-18T03:19:55.736Z,64.43
2022-11-18T03:21:27.309Z,64.46
2022-11-18T03:23:10.075Z,64.33
2022-11-18T03:24:43.288Z,64.49
2022-11-18T03:26:21.569Z,64.39
2022-11-18T03:28:03.385Z,63.90
2022-11-18T03:29:36.340Z,63.99
2022-11-18T03:31:42.379Z,63.79
2022-11-18T03:33:20.488Z,63.79
2022-11-18T03:35:27.412Z,64.03
2022-11-18T03:37:38.258Z,63.47
2022-11-18T03:39:10.263Z,63.58
2022-11-18T03:40:42.158Z,63.90
2022-11-18T03:42:19.780Z,63.62
2022-11-18T03:43:53.362Z,63.83
2022-11-18T03:45:26.240Z,63.86
2022-11-18T03:46:59.714Z,64.10
2022-11-18T03:48:51.692Z,63.99
2022-11-18T03:50:27.038Z,64.43
2022-11-18T03:51:59.169Z,64.24
2022-11-18T03:53:31.388Z,64.71
2022-11-18T03:55:04.440Z,64.06
2022-11-18T03:56:37.538Z,64.53
2022-11-18T03:58:14.005Z,64.31
2022-11-18T03:59:52.821Z,64.47
2022-11-18T04:01:30.670Z,64.80
2022-11-18T04:03:02.308Z,64.81
2022-11-18T04:04:34.349Z,64.96
2022-11-18T04:06:10.927Z,64.48
2022-11-18T04:07:44.333Z,65.10
2022-11-18T04:09:20.261Z,64.51
2022-11-18T04:11:06.778Z,64.57
2022-11-18T04:12:39.647Z,65.19
2022-11-18T04:14:11.200Z,64.50
2022-11-18T04:15:43.014Z,64.51
2022-11-18T04:17:15.361Z,64.22
2022-11-18T04:18:46.901Z,63.92
2022-11-18T04:20:19.882Z,64.30
2022-11-18T04:21:51.708Z,64.43
2022-11-18T04:23:23.257Z,64.55
2022-11-18T04:24:55.221Z,64.32
2022-11-18T04:26:27.157Z,64.36
2022-11-18T04:27:58.844Z,64.92
2022-11-18T04:29:30.959Z,64.95
2022-11-18T04:31:02.663Z,64.57
2022-11-18T04:32:34.362Z,64.49
2022-11-18T04:34:05.936Z,64.60
2022-11-18T04:35:38.002Z,64.50
2022-11-18T04:37:09.467Z,64.85
2022-11-18T04:38:40.963Z,64.46
2022-11-18T04:40:12.716Z,64.70
2022-11-18T04:41:57.021Z,64.67
2022-11-18T04:43:28.968Z,64.86
2022-11-18T04:45:00.589Z,64.95
2022-11-18T04:46:32.078Z,64.96
2022-11-18T04:48:04.116Z,64.73
2022-11-18T04:49:35.785Z,65.17
2022-11-18T04:51:09.212Z,64.56
2022-11-18T04:52:40.987Z,65.50
2022-11-18T04:54:12.862Z,65.17
2022-11-18T04:55:44.463Z,64.94
2022-11-18T04:57:16.835Z,64.91
2022-11-18T04:58:48.460Z,64.82
2022-11-18T05:00:20.200Z,65.68
2022-11-18T05:01:52.009Z,65.62
2022-11-18T05:03:23.788Z,65.03
2022-11-18T05:04:55.453Z,65.54
2022-11-18T05:06:27.170Z,65.13
2022-11-18T05:07:58.897Z,65.44
2022-11-18T05:09:32.301Z,65.09
2022-11-18T05:11:26.048Z,65.20
2022-11-18T05:12:57.850Z,65.24
2022-11-18T05:14:29.640Z,65.35
2022-11-18T05:16:01.695Z,64.98
2022-11-18T05:17:34.763Z,65.45
2022-11-18T05:19:06.383Z,64.85
2022-11-18T05:20:41.610Z,65.06
2022-11-18T05:22:14.457Z,64.79
2022-11-18T05:23:46.116Z,65.41
2022-11-18T05:25:17.883Z,65.12
2022-11-18T05:26:49.623Z,64.81
2022-11-18T05:28:21.517Z,65.51
2022-11-18T05:29:53.197Z,65.15
2022-11-18T05:31:24.915Z,65.40
2022-11-18T05:32:56.539Z,65.30
2022-11-18T05:34:28.204Z,65.42
2022-11-18T05:36:02.926Z,65.37
2022-11-18T05:37:34.433Z,65.30
2022-11-18T05:39:06.172Z,64.86
2022-11-18T05:40:37.803Z,65.14
2022-11-18T05:42:48.938Z,65.30
2022-11-18T05:44:20.594Z,64.85
2022-11-18T05:45:52.343Z,65.70
2022-11-18T05:47:25.602Z,65.66
2022-11-18T05:48:57.484Z,65.30
2022-11-18T05:50:29.179Z,65.76
2022-11-18T05:52:00.932Z,65.85
2022-11-18T05:53:32.588Z,65.53
2022-11-18T05:55:04.423Z,65.65
2022-11-18T05:56:37.194Z,65.29
2022-11-18T05:58:08.803Z,65.43
2022-11-18T05:59:40.510Z,65.54
2022-11-18T06:01:12.207Z,66.27
2022-11-18T06:02:43.759Z,65.70
2022-11-18T06:04:23.532Z,65.34
2022-11-18T06:05:55.723Z,65.82
2022-11-18T06:07:28.653Z,65.76
2022-11-18T06:09:04.288Z,65.67
2022-11-18T06:10:36.414Z,65.71
2022-11-18T06:12:07.962Z,66.30
2022-11-18T06:13:41.101Z,66.21
2022-11-18T06:15:15.904Z,66.39
2022-11-18T06:16:49.456Z,66.32
2022-11-18T06:18:24.994Z,66.08
2022-11-18T06:19:56.827Z,66.73
2022-11-18T06:21:28.522Z,66.26
2022-11-18T06:23:01.938Z,65.85
2022-11-18T06:24:33.570Z,66.35
2022-11-18T06:26:05.441Z,66.11
2022-11-18T06:27:37.563Z,65.94
2022-11-18T06:29:09.679Z,65.78
2022-11-18T06:30:41.319Z,65.90
2022-11-18T06:32:12.986Z,65.86
2022-11-18T06:34:00.022Z,65.88
2022-11-18T06:35:37.527Z,66.00
2022-11-18T06:37:16.098Z,65.62
2022-11-18T06:38:57.618Z,65.54
2022-11-18T06:40:36.738Z,65.73
2022-11-18T06:42:09.227Z,65.62
2022-11-18T06:43:43.768Z,65.68
2022-11-18T06:45:15.663Z,65.44
2022-11-18T06:46:56.317Z,65.40
2022-11-18T06:48:27.936Z,65.29
2022-11-18T06:49:59.579Z,65.49
2022-11-18T06:51:31.860Z,65.48
2022-11-18T06:53:03.557Z,65.42
2022-11-18T06:54:35.178Z,65.36
2022-11-18T06:56:07.875Z,64.94
2022-11-18T06:57:39.459Z,65.22
2022-11-18T06:59:11.117Z,64.70
2022-11-18T07:00:42.795Z,64.55
2022-11-18T07:02:14.647Z,64.32
2022-11-18T07:03:46.682Z,64.77
2022-11-18T07:05:18.243Z,64.43
2022-11-18T07:06:50.048Z,64.65
2022-11-18T07:08:21.739Z,64.14
2022-11-18T07:09:53.431Z,64.04
2022-11-18T07:11:25.509Z,64.14
2022-11-18T07:12:57.373Z,64.03
2022-11-18T07:14:29.367Z,63.78
2022-11-18T07:16:07.359Z,63.79
2022-11-18T07:17:39.041Z,63.75
2022-11-18T07:19:11.385Z,63.54
2022-11-18T07:20:43.208Z,63.59
2022-11-18T07:22:14.931Z,63.42
2022-11-18T07:23:46.829Z,63.29
2022-11-18T07:25:18.400Z,63.11
2022-11-18T07:26:49.930Z,63.14
2022-11-18T07:28:21.989Z,63.00
2022-11-18T07:29:53.820Z,62.78
2022-11-18T07:31:26.019Z,62.63
2022-11-18T07:32:58.123Z,62.70
2022-11-18T07:34:29.940Z,62.85
2022-11-18T07:36:02.431Z,62.68
2022-11-18T07:37:34.459Z,62.67
2022-11-18T07:39:06.549Z,62.58
2022-11-18T07:40:38.565Z,62.78
2022-11-18T07:42:10.787Z,62.71
2022-11-18T07:43:43.542Z,62.43
2022-11-18T07:45:15.366Z,62.05
2022-11-18T07:46:46.878Z,62.02
2022-11-18T07:48:18.844Z,61.91
2022-11-18T07:49:50.571Z,61.73
2022-11-18T07:51:23.902Z,61.95
2022-11-18T07:52:56.513Z,61.88
2022-11-18T07:54:28.082Z,61.85
2022-11-18T07:56:00.051Z,61.63
2022-11-18T07:57:31.903Z,61.68
2022-11-18T07:59:04.159Z,61.63
2022-11-18T08:00:35.663Z,61.68
2022-11-18T08:02:07.170Z,61.65
2022-11-18T08:03:38.895Z,61.50
2022-11-18T08:05:16.347Z,61.59
2022-11-18T08:06:50.963Z,61.44
2022-11-18T08:08:22.488Z,61.20
2022-11-18T08:09:54.815Z,61.41
2022-11-18T08:11:26.390Z,61.33
2022-11-18T08:12:58.048Z,61.24
2022-11-18T08:14:30.490Z,61.15
2022-11-18T08:16:02.575Z,60.90
2022-11-18T08:17:34.673Z,60.60
2022-11-18T08:19:06.539Z,60.34
2022-11-18T08:20:38.073Z,60.15
2022-11-18T08:22:10.205Z,60.00
2022-11-18T08:23:42.739Z,59.56
2022-11-18T08:25:14.534Z,59.21
2022-11-18T08:26:46.576Z,59.24
2022-11-18T08:28:18.711Z,59.08
2022-11-18T08:29:50.424Z,59.35
2022-11-18T08:31:24.508Z,59.45
2022-11-18T08:32:56.109Z,59.49
2022-11-18T08:34:27.928Z,59.20
2022-11-18T08:35:59.716Z,59.44
2022-11-18T08:37:31.336Z,59.32
2022-11-18T08:39:03.852Z,59.39
2022-11-18T08:40:35.692Z,59.20
2022-11-18T08:42:07.328Z,58.79
2022-11-18T08:43:39.119Z,58.84
2022-11-18T08:45:10.762Z,58.85
2022-11-18T08:46:42.855Z,58.67
2022-11-18T08:48:14.462Z,58.33
2022-11-18T08:49:46.348Z,58.31
2022-11-18T08:51:18.031Z,58.33
2022-11-18T08:52:49.874Z,58.28
2022-11-18T08:54:21.522Z,58.18
2022-11-18T08:55:57.484Z,57.92
2022-11-18T08:57:29.111Z,57.72
2022-11-18T08:59:00.882Z,57.81
2022-11-18T09:00:32.740Z,57.45
2022-11-18T09:02:04.592Z,57.45
2022-11-18T09:03:36.651Z,57.68
2022-11-18T09:05:08.392Z,57.59
2022-11-18T09:06:40.597Z,57.20
2022-11-18T09:08:12.321Z,57.15
2022-11-18T09:09:44.161Z,57.23
2022-11-18T09:11:19.591Z,56.87
2022-11-18T09:12:51.189Z,56.97
2022-11-18T09:16:15.399Z,56.39
2022-11-18T09:17:47.354Z,56.61
2022-11-18T09:19:45.512Z,56.52
2022-11-18T09:21:11.012Z,56.47
2022-11-18T09:22:42.555Z,56.49
2022-11-18T09:24:14.361Z,56.19
2022-11-18T09:25:46.449Z,56.04
2022-11-18T09:27:18.339Z,56.01
2022-11-18T09:28:50.713Z,55.96
2022-11-18T09:30:22.696Z,55.65
2022-11-18T09:31:54.485Z,55.41
2022-11-18T09:33:26.191Z,55.16
2022-11-18T09:34:57.786Z,55.00
2022-11-18T09:36:29.590Z,55.16
2022-11-18T09:38:01.213Z,55.00
2022-11-18T09:39:34.980Z,55.02
2022-11-18T09:41:06.768Z,55.24
2022-11-18T09:42:38.379Z,55.31
2022-11-18T09:44:25.340Z,55.57
2022-11-18T09:45:58.772Z,55.36
2022-11-18T09:47:33.695Z,55.46
2022-11-18T09:49:14.863Z,55.15
2022-11-18T09:50:50.184Z,54.86
2022-11-18T09:52:25.329Z,54.50
2022-11-18T09:53:57.497Z,54.21
2022-11-18T09:55:29.135Z,53.71
2022-11-18T09:57:01.273Z,53.80
2022-11-18T09:58:33.799Z,54.05
2022-11-18T10:00:21.327Z,54.02
2022-11-18T10:01:53.443Z,53.38
2022-11-18T10:03:32.179Z,53.46
2022-11-18T10:05:17.237Z,53.68
2022-11-18T10:06:49.152Z,53.43
2022-11-18T10:08:28.876Z,53.10
2022-11-18T10:10:00.588Z,53.06
2022-11-18T10:12:01.767Z,52.93
2022-11-18T10:13:54.921Z,52.45
2022-11-18T10:15:30.479Z,52.46
2022-11-18T10:17:20.799Z,52.48
2022-11-18T10:19:09.183Z,52.38
2022-11-18T10:20:50.051Z,52.18
2022-11-18T10:22:32.246Z,52.17
2022-11-18T10:24:17.224Z,52.00
2022-11-18T10:25:49.276Z,51.86
2022-11-18T10:27:20.831Z,52.07
2022-11-18T10:28:52.734Z,52.17
2022-11-18T10:30:25.612Z,52.27
2022-11-18T10:32:04.375Z,52.28
2022-11-18T10:33:39.106Z,52.38
2022-11-18T10:35:31.129Z,52.08
2022-11-18T10:39:49.635Z,52.02
2022-11-18T10:41:21.514Z,52.08
2022-11-18T10:42:53.204Z,52.16
2022-11-18T10:44:35.222Z,51.92
2022-11-18T10:46:16.903Z,51.74
2022-11-18T10:48:07.000Z,51.36
2022-11-18T10:49:39.220Z,51.09
2022-11-18T10:51:28.825Z,50.97
2022-11-18T10:53:00.438Z,51.03
2022-11-18T10:54:31.997Z,50.99
2022-11-18T10:56:04.537Z,50.82
2022-11-18T10:57:42.621Z,50.73
2022-11-18T10:59:19.584Z,50.54
2022-11-18T11:00:51.193Z,50.41
2022-11-18T11:02:35.310Z,50.40
2022-11-18T11:04:20.514Z,50.58
2022-11-18T11:06:11.102Z,50.54
2022-11-18T11:07:42.827Z,50.37
2022-11-18T11:09:14.624Z,50.18
2022-11-18T11:10:55.954Z,50.34
2022-11-18T11:12:27.884Z,50.34
2022-11-18T11:14:06.358Z,50.37
2022-11-18T11:15:47.691Z,50.26
2022-11-18T11:17:20.334Z,49.86
2022-11-18T11:18:53.953Z,49.99
2022-11-18T11:20:25.625Z,49.82
2022-11-18T11:21:57.207Z,49.71
2022-11-18T11:23:28.977Z,49.74
2022-11-18T11:25:00.545Z,49.92
2022-11-18T11:28:30.957Z,50.30
2022-11-18T11:30:02.500Z,50.41
2022-11-18T11:31:36.608Z,50.31
2022-11-18T11:33:15.342Z,50.55
2022-11-18T11:34:51.243Z,50.60
2022-11-18T11:36:45.917Z,50.56
2022-11-18T11:38:28.144Z,50.33
2022-11-18T11:40:03.006Z,50.36
2022-11-18T11:42:02.435Z,50.32
2022-11-18T11:43:34.178Z,50.32
2022-11-18T11:45:09.888Z,50.46
2022-11-18T11:46:44.586Z,50.21
2022-11-18T11:48:19.305Z,50.34
2022-11-18T11:50:01.640Z,50.16
2022-11-18T11:51:48.457Z,50.01
2022-11-18T11:53:20.256Z,49.71
2022-11-18T11:54:56.115Z,49.77
2022-11-18T11:56:45.338Z,49.97
2022-11-18T11:58:23.897Z,49.95
2022-11-18T12:00:01.815Z,49.61
2022-11-18T12:01:51.942Z,49.47
2022-11-18T12:03:32.840Z,49.40
2022-11-18T12:05:10.819Z,49.30
2022-11-18T12:06:44.568Z,49.24
2022-11-18T12:08:25.390Z,49.14
2022-11-18T12:10:03.083Z,49.21
2022-11-18T12:11:38.990Z,49.43
2022-11-18T12:13:13.156Z,49.43
2022-11-18T12:14:46.730Z,49.33
2022-11-18T12:16:21.802Z,49.45
2022-11-18T12:17:59.692Z,49.33
2022-11-18T12:19:31.519Z,49.33
2022-11-18T12:21:03.507Z,49.60
2022-11-18T12:22:53.957Z,49.42
2022-11-18T12:24:37.975Z,49.62
2022-11-18T12:26:09.723Z,49.58
2022-11-18T12:27:41.413Z,49.69
2022-11-18T12:29:21.090Z,49.88
2022-11-18T12:31:22.165Z,50.05
2022-11-18T12:32:56.919Z,50.10
2022-11-18T12:34:32.919Z,50.15
2022-11-18T12:36:04.709Z,50.17
2022-11-18T12:37:36.342Z,50.14
2022-11-18T12:39:26.419Z,49.98
2022-11-18T12:40:58.133Z,49.81
2022-11-18T12:43:01.060Z,49.83
2022-11-18T12:44:32.673Z,49.83
2022-11-18T12:46:04.620Z,49.91
2022-11-18T12:47:42.605Z,49.86
2022-11-18T12:49:23.400Z,49.85
2022-11-18T12:51:01.919Z,49.93
2022-11-18T12:52:33.484Z,50.10
2022-11-18T12:54:15.832Z,50.19
2022-11-18T12:55:47.422Z,50.03
2022-11-18T12:57:20.650Z,50.09
2022-11-18T12:58:53.502Z,50.21
2022-11-18T13:00:25.578Z,49.95
2022-11-18T13:02:12.452Z,50.05
2022-11-18T13:03:44.297Z,50.09
2022-11-18T13:05:21.822Z,50.07
2022-11-18T13:06:55.362Z,50.18
2022-11-18T13:08:27.095Z,50.01
2022-11-18T13:09:58.694Z,50.03
2022-11-18T13:11:46.567Z,50.06
2022-11-18T13:13:20.876Z,49.80
2022-11-18T13:15:11.148Z,50.11
2022-11-18T13:17:02.244Z,50.12
2022-11-18T13:18:34.750Z,50.25
2022-11-18T13:20:06.644Z,50.30
2022-11-18T13:21:56.866Z,50.17
2022-11-18T13:23:50.037Z,50.50
2022-11-18T13:25:25.077Z,50.42
2022-11-18T13:26:59.771Z,50.61
2022-11-18T13:28:50.135Z,50.54
2022-11-18T13:30:22.085Z,50.67
2022-11-18T13:31:53.814Z,50.70
2022-11-18T13:33:25.907Z,50.74
2022-11-18T13:35:08.099Z,50.71
2022-11-18T13:36:42.858Z,50.88
2022-11-18T13:38:27.660Z,50.87
2022-11-18T13:40:00.050Z,50.77
2022-11-18T13:41:33.019Z,50.81
2022-11-18T13:43:04.813Z,50.84
2022-11-18T13:44:37.050Z,50.82
2022-11-18T13:46:10.669Z,51.00
2022-11-18T13:47:49.395Z,50.96
2022-11-18T13:49:22.647Z,50.85
2022-11-18T13:50:55.380Z,51.06
2022-11-18T13:52:32.659Z,51.12
2022-11-18T13:54:04.297Z,51.21
2022-11-18T13:55:39.575Z,51.13
2022-11-18T13:57:16.862Z,51.23
2022-11-18T14:00:57.899Z,51.30
2022-11-18T14:02:29.407Z,51.23
2022-11-18T14:04:01.829Z,51.24
2022-11-18T14:05:33.438Z,51.34
2022-11-18T14:07:23.728Z,51.36
2022-11-18T14:09:04.367Z,51.48
2022-11-18T14:10:43.454Z,51.56
2022-11-18T14:12:15.049Z,51.33
2022-11-18T14:13:51.279Z,51.39
2022-11-18T14:15:32.722Z,51.22
2022-11-18T14:17:16.551Z,51.41
2022-11-18T14:18:49.295Z,51.58
2022-11-18T14:20:21.372Z,51.79
2022-11-18T14:21:53.092Z,51.62
2022-11-18T14:23:28.942Z,51.68
2022-11-18T14:25:01.838Z,52.00
2022-11-18T14:26:34.979Z,51.88
2022-11-18T14:28:12.584Z,51.96
2022-11-18T14:29:50.847Z,51.84
2022-11-18T14:31:24.005Z,52.13
2022-11-18T14:33:14.055Z,51.88
2022-11-18T14:34:45.993Z,52.08
2022-11-18T14:36:18.140Z,51.89
2022-11-18T14:37:49.828Z,51.61
2022-11-18T14:39:29.039Z,51.61
2022-11-18T14:41:01.469Z,51.58
2022-11-18T14:42:33.146Z,51.54
2022-11-18T14:44:05.229Z,51.56
2022-11-18T14:45:37.636Z,51.57
2022-11-18T14:47:23.391Z,51.60
2022-11-18T14:48:55.237Z,51.49
2022-11-18T14:50:27.003Z,51.60
2022-11-18T14:51:58.924Z,51.66
2022-11-18T14:53:30.584Z,51.64
2022-11-18T14:55:02.383Z,51.75
2022-11-18T14:56:34.328Z,51.63
2022-11-18T14:58:05.995Z,51.76
2022-11-18T14:59:37.720Z,51.93
2022-11-18T15:01:10.728Z,51.93
2022-11-18T15:02:42.419Z,51.80
2022-11-18T15:04:14.287Z,51.75
2022-11-18T15:05:46.361Z,51.50
2022-11-18T15:07:23.392Z,51.66
2022-11-18T15:08:55.205Z,51.62
2022-11-18T15:10:26.999Z,51.69
2022-11-18T15:11:58.641Z,51.45
2022-11-18T15:13:30.548Z,51.17
2022-11-18T15:15:02.464Z,51.15
2022-11-18T15:16:34.434Z,51.08
2022-11-18T15:18:06.180Z,51.13
2022-11-18T15:19:38.550Z,51.24
2022-11-18T15:21:10.386Z,51.35
2022-11-18T15:22:42.211Z,51.16
2022-11-18T15:24:13.790Z,51.26
2022-11-18T15:25:45.331Z,51.29
2022-11-18T15:27:17.286Z,51.07
2022-11-18T15:28:49.338Z,51.42
2022-11-18T15:30:20.936Z,51.41
2022-11-18T15:31:52.748Z,51.17
2022-11-18T15:33:24.711Z,51.36
2022-11-18T15:34:56.278Z,51.39
2022-11-18T15:36:27.831Z,51.60
2022-11-18T15:37:59.416Z,51.44
2022-11-18T15:39:31.086Z,51.51
2022-11-18T15:41:02.926Z,51.51
2022-11-18T15:42:40.102Z,51.62
2022-11-18T15:44:19.252Z,51.46
2022-11-18T15:45:56.599Z,51.63
2022-11-18T15:47:28.629Z,51.30
2022-11-18T15:49:00.815Z,51.35
2022-11-18T15:50:32.615Z,51.23
2022-11-18T15:52:04.392Z,51.25
2022-11-18T15:53:36.078Z,50.95
2022-11-18T15:55:08.340Z,51.17
2022-11-18T15:56:41.842Z,51.14
2022-11-18T15:58:13.676Z,51.43
2022-11-18T15:59:45.465Z,51.05
2022-11-18T16:01:17.025Z,51.41
2022-11-18T16:02:48.712Z,51.50
2022-11-18T16:04:20.892Z,51.66
2022-11-18T16:05:52.762Z,51.69
2022-11-18T16:07:24.822Z,51.76
2022-11-18T16:09:00.027Z,52.00
2022-11-18T16:10:50.677Z,51.81
2022-11-18T16:12:41.405Z,51.68
2022-11-18T16:14:13.579Z,51.71
2022-11-18T16:15:48.438Z,52.09
2022-11-18T16:17:20.235Z,51.83
2022-11-18T16:18:55.984Z,52.00
2022-11-18T16:20:28.060Z,52.02
2022-11-18T16:21:59.882Z,52.12
2022-11-18T16:23:31.760Z,51.69
2022-11-18T16:25:03.549Z,52.27
2022-11-18T16:26:35.453Z,52.05
2022-11-18T16:28:07.560Z,52.11
2022-11-18T16:29:39.812Z,52.56
2022-11-18T16:31:30.199Z,52.47
2022-11-18T16:33:02.138Z,52.37
2022-11-18T16:34:33.918Z,52.34
2022-11-18T16:36:07.570Z,52.46
2022-11-18T16:37:39.824Z,52.75
2022-11-18T16:39:15.311Z,52.58
2022-11-18T16:40:47.203Z,52.88
2022-11-18T16:42:18.842Z,52.59
2022-11-18T16:43:50.826Z,53.03
2022-11-18T16:45:22.775Z,52.80
2022-11-18T16:46:55.089Z,52.80
2022-11-18T16:48:26.929Z,53.18
2022-11-18T16:49:58.706Z,53.24
2022-11-18T16:51:31.075Z,53.40
2022-11-18T16:53:02.742Z,53.12
2022-11-18T16:54:35.591Z,53.58
2022-11-18T16:56:08.826Z,53.64
2022-11-18T16:57:41.035Z,53.74
2022-11-18T16:59:16.664Z,53.48
2022-11-18T17:01:16.384Z,53.96
2022-11-18T17:02:40.907Z,53.71
2022-11-18T17:04:12.716Z,54.10
2022-11-18T17:05:44.305Z,53.84
2022-11-18T17:07:19.134Z,54.14
2022-11-18T17:08:51.002Z,54.20
2022-11-18T17:10:22.673Z,54.66
2022-11-18T17:11:54.646Z,54.63
2022-11-18T17:13:28.300Z,54.90
2022-11-18T17:14:59.859Z,54.96
2022-11-18T17:16:31.576Z,55.07
2022-11-18T17:18:03.221Z,55.21
2022-11-18T17:19:34.982Z,54.86
2022-11-18T17:21:07.840Z,54.92
2022-11-18T17:22:39.476Z,54.93
2022-11-18T17:24:12.210Z,55.13
2022-11-18T17:25:43.894Z,55.50
2022-11-18T17:27:15.706Z,55.44
2022-11-18T17:28:47.552Z,55.35
2022-11-18T17:30:19.370Z,55.77
2022-11-18T17:31:51.340Z,55.38
2022-11-18T17:33:23.176Z,55.69
2022-11-18T17:34:55.564Z,55.77
2022-11-18T17:36:27.579Z,55.96
2022-11-18T17:37:59.625Z,55.93
2022-11-18T17:39:32.251Z,56.02
2022-11-18T17:41:04.102Z,55.92
2022-11-18T17:42:35.899Z,56.08
2022-11-18T17:44:08.157Z,56.12
2022-11-18T17:45:41.681Z,56.32
2022-11-18T17:47:13.993Z,56.31
2022-11-18T17:48:45.849Z,56.15
2022-11-18T17:50:17.778Z,56.59
2022-11-18T17:51:51.572Z,56.48
2022-11-18T17:53:23.554Z,56.50
2022-11-18T17:54:55.211Z,56.92
2022-11-18T17:56:26.958Z,56.61
2022-11-18T17:58:00.709Z,56.74
2022-11-18T17:59:32.882Z,56.87
2022-11-18T18:01:09.002Z,56.67
2022-11-18T18:02:40.888Z,57.15
2022-11-18T18:04:14.645Z,56.88
2022-11-18T18:05:46.440Z,56.81
2022-11-18T18:07:18.296Z,56.89
2022-11-18T18:08:50.100Z,56.90
2022-11-18T18:10:22.042Z,57.28
2022-11-18T18:11:53.717Z,57.32
2022-11-18T18:13:44.093Z,57.22
2022-11-18T18:15:15.940Z,57.34
2022-11-18T18:16:48.770Z,57.44
2022-11-18T18:18:20.536Z,57.20
2022-11-18T18:19:52.123Z,57.19
2022-11-18T18:21:24.155Z,57.37
2022-11-18T18:22:56.121Z,57.42
2022-11-18T18:24:28.008Z,57.77
2022-11-18T18:26:03.121Z,57.71
2022-11-18T18:27:34.780Z,57.68
2022-11-18T18:29:07.097Z,57.46
2022-11-18T18:30:38.865Z,57.67
2022-11-18T18:32:11.044Z,57.75
2022-11-18T18:33:45.983Z,57.98
2022-11-18T18:35:17.987Z,57.62
2022-11-18T18:36:50.202Z,58.01
2022-11-18T18:38:21.990Z,57.64
2022-11-18T18:39:53.681Z,58.08
2022-11-18T18:41:25.705Z,57.98
2022-11-18T18:42:57.673Z,57.79
2022-11-18T18:44:49.425Z,58.05
2022-11-18T18:46:34.994Z,58.01
2022-11-18T18:48:06.617Z,57.89
2022-11-18T18:49:38.407Z,58.19
2022-11-18T18:51:10.122Z,57.92
2022-11-18T18:52:42.092Z,58.04
2022-11-18T18:54:15.056Z,58.12
2022-11-18T18:55:46.822Z,58.42
2022-11-18T18:57:18.670Z,58.49
2022-11-18T18:58:50.440Z,58.50
2022-11-18T19:00:22.174Z,58.53
2022-11-18T19:01:54.423Z,58.20
2022-11-18T19:03:26.035Z,57.98
2022-11-18T19:04:58.101Z,58.52
2022-11-18T19:08:22.853Z,58.07
2022-11-18T19:09:54.559Z,58.28
2022-11-18T19:11:45.423Z,58.04
2022-11-18T19:13:17.294Z,58.45
2022-11-18T19:14:49.617Z,58.01
2022-11-18T19:16:21.249Z,58.20
2022-11-18T19:17:58.768Z,58.55
2022-11-18T19:19:54.663Z,58.05
2022-11-18T19:21:44.246Z,58.03
2022-11-18T19:23:21.355Z,58.00
2022-11-18T19:24:54.033Z,58.32
2022-11-18T19:26:26.047Z,58.30
2022-11-18T19:27:57.898Z,58.35
2022-11-18T19:29:29.540Z,58.16
2022-11-18T19:31:01.126Z,58.28
2022-11-18T19:32:35.308Z,57.95
2022-11-18T19:34:07.017Z,58.37
2022-11-18T19:35:38.640Z,58.38
2022-11-18T19:37:10.283Z,58.12
2022-11-18T19:38:41.928Z,58.23
2022-11-18T19:40:13.807Z,58.43
2022-11-18T19:41:45.501Z,58.34
2022-11-18T19:43:17.133Z,58.22
2022-11-18T19:44:48.740Z,57.89
2022-11-18T19:46:20.327Z,58.37
2022-11-18T19:47:52.158Z,58.35
2022-11-18T19:49:23.927Z,58.04
2022-11-18T19:51:05.134Z,58.07
2022-11-18T19:52:37.183Z,58.44
2022-11-18T19:54:09.387Z,58.20
2022-11-18T19:55:41.002Z,58.12
2022-11-18T19:57:12.873Z,58.46
2022-11-18T19:58:45.648Z,57.99
2022-11-18T20:00:18.758Z,58.16
2022-11-18T20:01:50.428Z,58.44
2022-11-18T20:03:22.078Z,58.21
2022-11-18T20:05:12.559Z,58.12
2022-11-18T20:06:44.551Z,58.21
2022-11-18T20:08:16.532Z,57.96
2022-11-18T20:09:48.243Z,58.00
2022-11-18T20:11:20.102Z,57.91
2022-11-18T20:12:53.001Z,57.77
2022-11-18T20:14:25.233Z,58.05
2022-11-18T20:16:00.508Z,58.18
2022-11-18T20:17:32.598Z,57.81
2022-11-18T20:19:10.582Z,57.90
2022-11-18T20:20:43.199Z,57.93
2022-11-18T20:22:15.116Z,58.13
2022-11-18T20:23:52.293Z,57.95
2022-11-18T20:25:34.600Z,58.34
2022-11-18T20:27:09.573Z,58.17
2022-11-18T20:28:47.172Z,57.85
2022-11-18T20:30:54.151Z,58.01